Time;durP1;ratioP1;P1;durP2;ratioP2;P2;SDS_P1;SDS_P2;PMS_P1;PMS_P2;Temp;Humidity;BMP_temperature;BMP_pressure;BME280_temperature;BME280_humidity;BME280_pressure;Samples;Min_cycle;Max_cycle;Signal;HPM_P1;HPM_P2
2022/12/19 00:00:48;;;;;;;;;;;;;;;6.36;56.28;102618.72;5016267;28;20305;-78
2022/12/19 00:03:33;;;;;;;;;;;;;;;6.58;56.06;102618.88;5035692;28;19917;-78
2022/12/19 00:06:19;;;;;;;;;;;;;;;6.47;56.28;102619.75;5033403;28;19917;-78
2022/12/19 00:09:04;;;;;;;;;;;;;;;6.65;56.00;102616.03;5023292;28;19917;-77
2022/12/19 00:11:49;;;;;;;;;;;;;;;6.72;55.86;102617.50;5031225;28;20377;-77
2022/12/19 00:14:33;;;;;;;;;;;;;;;6.49;56.56;102611.41;5029803;28;19921;-78
2022/12/19 00:17:17;;;;;;;;;;;;;;;6.31;57.11;102607.00;5023385;28;19917;-78
2022/12/19 00:20:02;;;;;;;;;;;;;;;6.39;57.18;102607.44;5033181;28;19921;-77
2022/12/19 00:22:46;;;;;;;;;;;;;;;6.38;57.48;102611.22;5033282;28;19921;-78
2022/12/19 00:25:31;;;;;;;;;;;;;;;6.50;56.89;102613.88;5033340;28;19917;-78
2022/12/19 00:28:15;;;;;;;;;;;;;;;6.43;57.22;102615.88;5020179;28;19917;-78
2022/12/19 00:31:00;;;;;;;;;;;;;;;6.52;57.35;102619.84;5039470;28;20540;-78
2022/12/19 00:33:46;;;;;;;;;;;;;;;6.61;57.11;102612.97;5019607;28;19917;-77
2022/12/19 00:36:31;;;;;;;;;;;;;;;6.64;57.19;102617.09;5021804;28;19917;-77
2022/12/19 00:39:17;;;;;;;;;;;;;;;6.59;57.16;102617.81;5021041;28;20320;-79
2022/12/19 00:42:03;;;;;;;;;;;;;;;6.43;57.39;102624.00;5018919;28;19929;-78
2022/12/19 00:44:48;;;;;;;;;;;;;;;5.89;59.35;102630.72;5037780;28;19917;-78
2022/12/19 00:47:33;;;;;;;;;;;;;;;5.67;60.04;102635.03;5029411;28;19921;-78
2022/12/19 00:50:18;;;;;;;;;;;;;;;5.98;59.71;102626.59;5016857;28;19917;-78
2022/12/19 00:53:02;;;;;;;;;;;;;;;6.20;58.75;102632.16;5020487;28;19917;-77
2022/12/19 00:55:46;;;;;;;;;;;;;;;5.93;59.75;102634.56;5019957;28;19917;-78
2022/12/19 00:58:31;;;;;;;;;;;;;;;6.36;57.55;102628.69;5030262;28;19917;-78
2022/12/19 01:01:21;;;;;;;;;;;;;;;6.16;57.86;102617.50;5032262;28;19921;-76
2022/12/19 01:04:07;;;;;;;;;;;;;;;5.79;59.81;102622.34;5021686;28;19917;-78
2022/12/19 01:06:51;;;;;;;;;;;;;;;6.26;58.57;102612.28;5016414;28;19917;-78
2022/12/19 01:09:36;;;;;;;;;;;;;;;6.51;57.90;102620.06;5016400;28;19917;-80
2022/12/19 01:15:24;;;;;;;;;;;;;;;6.56;57.38;102612.88;5015969;28;19917;-78
2022/12/19 01:18:09;;;;;;;;;;;;;;;6.39;58.12;102617.44;5013265;28;19918;-78
2022/12/19 01:20:54;;;;;;;;;;;;;;;6.54;58.43;102617.72;5027714;28;19921;-79
2022/12/19 01:23:38;;;;;;;;;;;;;;;6.48;58.52;102618.69;5032105;28;19917;-79
2022/12/19 01:26:23;;;;;;;;;;;;;;;6.59;58.07;102619.69;5019748;28;19917;-79
2022/12/19 01:29:07;;;;;;;;;;;;;;;6.64;58.09;102620.63;5017188;28;19917;-79
2022/12/19 01:31:51;;;;;;;;;;;;;;;6.59;57.99;102631.34;5011445;28;19917;-80
2022/12/19 01:34:36;;;;;;;;;;;;;;;6.64;57.92;102623.31;5027274;28;19941;-78
2022/12/19 01:37:21;;;;;;;;;;;;;;;6.43;58.39;102635.63;5022517;28;20397;-79
2022/12/19 01:40:06;;;;;;;;;;;;;;;5.88;60.47;102640.69;5019585;28;19917;-78
2022/12/19 01:42:50;;;;;;;;;;;;;;;5.82;60.18;102649.69;5031815;28;19921;-79
2022/12/19 01:45:36;;;;;;;;;;;;;;;5.48;61.27;102643.25;5033010;28;19917;-78
2022/12/19 01:48:25;;;;;;;;;;;;;;;4.72;63.82;102643.19;5031999;28;19917;-77
2022/12/19 01:51:13;;;;;;;;;;;;;;;5.02;62.79;102643.16;5030901;28;19917;-76
2022/12/19 01:54:00;;;;;;;;;;;;;;;5.48;61.41;102653.22;5014582;28;19917;-76
2022/12/19 01:56:50;;;;;;;;;;;;;;;6.06;59.71;102645.09;5018963;28;19917;-78
2022/12/19 01:59:38;;;;;;;;;;;;;;;6.36;58.79;102642.22;5016797;28;19917;-77
2022/12/19 02:02:31;;;;;;;;;;;;;;;6.26;58.91;102648.22;5033772;28;19921;-78
2022/12/19 02:05:16;;;;;;;;;;;;;;;6.15;59.47;102638.28;5032498;28;19917;-78
2022/12/19 02:08:00;;;;;;;;;;;;;;;6.12;59.26;102648.75;5022408;28;19917;-77
2022/12/19 02:10:45;;;;;;;;;;;;;;;6.21;59.53;102650.00;5031023;28;19917;-78
2022/12/19 02:13:32;;;;;;;;;;;;;;;6.09;59.77;102660.84;5018579;28;19918;-78
2022/12/19 02:16:22;;;;;;;;;;;;;;;6.40;57.75;102655.00;5031721;28;19917;-76
2022/12/19 02:19:26;;;;;;;;;;;;;;;5.83;59.43;102655.91;5026226;28;19917;-77
2022/12/19 02:22:19;;;;;;;;;;;;;;;4.77;62.86;102643.34;5029458;28;19921;-77
2022/12/19 02:25:26;;;;;;;;;;;;;;;5.86;59.79;102634.66;5022904;28;19921;-77
2022/12/19 02:28:25;;;;;;;;;;;;;;;5.62;59.80;102632.22;5033819;28;19918;-78
2022/12/19 02:31:22;;;;;;;;;;;;;;;6.14;59.04;102628.56;5030439;28;20008;-77
2022/12/19 02:34:12;;;;;;;;;;;;;;;5.83;60.84;102623.50;5031735;28;19918;-78
2022/12/19 02:37:07;;;;;;;;;;;;;;;5.94;60.91;102612.72;5030140;28;19921;-77
2022/12/19 02:40:00;;;;;;;;;;;;;;;6.08;60.47;102610.59;5023786;28;19917;-77
2022/12/19 02:42:49;;;;;;;;;;;;;;;5.93;61.17;102618.38;5036147;28;19921;-77
2022/12/19 02:45:36;;;;;;;;;;;;;;;5.83;62.12;102623.50;5033456;28;19921;-76
2022/12/19 02:48:21;;;;;;;;;;;;;;;5.71;63.08;102626.22;5023222;28;19925;-77
2022/12/19 02:51:06;;;;;;;;;;;;;;;5.77;63.01;102621.75;5034755;28;20285;-77
2022/12/19 02:53:51;;;;;;;;;;;;;;;5.89;62.37;102620.69;5033656;28;19921;-77
2022/12/19 02:56:44;;;;;;;;;;;;;;;5.76;63.49;102626.34;5032986;28;19917;-77
2022/12/19 02:59:41;;;;;;;;;;;;;;;5.72;64.16;102622.47;5017813;28;19917;-77
2022/12/19 03:02:25;;;;;;;;;;;;;;;5.72;64.92;102619.78;5031698;28;20332;-78
2022/12/19 03:05:15;;;;;;;;;;;;;;;5.84;64.46;102633.25;5035017;28;19917;-77
2022/12/19 03:08:15;;;;;;;;;;;;;;;5.87;64.61;102632.81;5028799;28;19917;-78
2022/12/19 03:11:09;;;;;;;;;;;;;;;5.98;64.11;102631.97;5024936;28;19916;-78
2022/12/19 03:13:58;;;;;;;;;;;;;;;5.74;65.04;102631.13;5022161;28;19917;-78
2022/12/19 03:16:43;;;;;;;;;;;;;;;5.68;66.07;102618.59;5034056;28;19920;-76
2022/12/19 03:19:27;;;;;;;;;;;;;;;5.83;65.66;102613.53;5030749;28;20378;-78
2022/12/19 03:22:12;;;;;;;;;;;;;;;5.91;65.46;102629.41;5029217;28;19929;-76
2022/12/19 03:24:56;;;;;;;;;;;;;;;5.81;65.80;102626.44;5019475;28;19917;-78
2022/12/19 03:27:41;;;;;;;;;;;;;;;5.99;65.07;102623.63;5037734;28;19917;-76
2022/12/19 03:30:26;;;;;;;;;;;;;;;6.03;65.46;102623.16;5028658;28;19918;-78
2022/12/19 03:33:12;;;;;;;;;;;;;;;5.90;65.71;102611.56;5033635;28;19917;-78
2022/12/19 03:36:00;;;;;;;;;;;;;;;5.87;65.33;102612.03;5032829;28;19917;-78
2022/12/19 03:38:45;;;;;;;;;;;;;;;5.83;65.83;102597.34;5033951;28;19917;-77
2022/12/19 03:44:34;;;;;;;;;;;;;;;5.99;65.67;102606.63;5022369;28;19917;-77
2022/12/19 03:47:25;;;;;;;;;;;;;;;5.97;65.92;102604.16;5021222;28;19917;-78
2022/12/19 03:50:10;;;;;;;;;;;;;;;5.76;66.56;102612.00;5027793;28;19917;-77
2022/12/19 03:53:13;;;;;;;;;;;;;;;5.59;67.41;102610.03;5022530;28;19917;-77
2022/12/19 03:56:02;;;;;;;;;;;;;;;5.60;67.20;102605.44;5031505;28;19918;-77
2022/12/19 03:58:51;;;;;;;;;;;;;;;5.71;66.35;102593.81;5025624;28;19917;-78
2022/12/19 04:01:35;;;;;;;;;;;;;;;5.63;66.90;102599.59;5020525;28;19921;-78
2022/12/19 04:04:21;;;;;;;;;;;;;;;5.76;66.19;102596.63;5018956;28;20393;-78
2022/12/19 04:07:06;;;;;;;;;;;;;;;5.54;67.54;102598.28;5018283;28;19918;-78
2022/12/19 04:09:51;;;;;;;;;;;;;;;5.72;67.23;102602.75;5021411;28;19917;-78
2022/12/19 04:12:38;;;;;;;;;;;;;;;5.69;66.43;102606.72;5025134;28;19936;-77
2022/12/19 04:15:31;;;;;;;;;;;;;;;5.68;66.49;102605.13;5019200;28;19921;-77
2022/12/19 04:18:17;;;;;;;;;;;;;;;5.66;67.20;102606.38;5033632;28;20384;-78
2022/12/19 04:21:12;;;;;;;;;;;;;;;5.82;66.95;102606.50;5034864;28;19917;-76
2022/12/19 04:24:01;;;;;;;;;;;;;;;6.10;65.83;102607.63;5029548;28;19944;-76
2022/12/19 04:26:48;;;;;;;;;;;;;;;5.98;65.90;102604.97;5025200;28;19917;-77
2022/12/19 04:29:34;;;;;;;;;;;;;;;5.95;65.31;102600.84;5033288;28;19916;-78
2022/12/19 04:32:19;;;;;;;;;;;;;;;5.91;65.37;102606.97;5030194;28;19917;-78
2022/12/19 04:35:04;;;;;;;;;;;;;;;6.00;64.98;102609.06;5029677;28;19921;-78
2022/12/19 04:37:48;;;;;;;;;;;;;;;5.80;65.08;102619.41;5018992;28;19917;-79
2022/12/19 04:40:33;;;;;;;;;;;;;;;4.73;67.94;102607.09;5026850;28;19928;-80
2022/12/19 04:43:18;;;;;;;;;;;;;;;4.91;69.20;102607.03;5032686;28;19921;-79
2022/12/19 04:46:02;;;;;;;;;;;;;;;5.05;68.14;102611.16;5018070;28;19917;-79
2022/12/19 04:48:46;;;;;;;;;;;;;;;5.55;67.35;102613.44;5022641;28;19917;-79
2022/12/19 04:51:31;;;;;;;;;;;;;;;5.74;65.64;102604.13;5032008;28;19917;-80
2022/12/19 04:54:15;;;;;;;;;;;;;;;5.22;67.40;102595.13;5014221;28;20373;-80
2022/12/19 04:57:00;;;;;;;;;;;;;;;5.25;67.67;102600.06;5032672;28;19917;-80
2022/12/19 04:59:44;;;;;;;;;;;;;;;5.25;67.85;102601.94;5033085;28;19917;-80
2022/12/19 05:02:29;;;;;;;;;;;;;;;5.26;67.14;102600.88;5033461;28;19921;-80
2022/12/19 05:05:13;;;;;;;;;;;;;;;5.49;66.73;102612.50;5031157;28;20332;-80
2022/12/19 05:07:58;;;;;;;;;;;;;;;5.45;66.86;102610.50;5032718;28;19932;-80
2022/12/19 05:10:42;;;;;;;;;;;;;;;5.31;67.04;102615.31;5038098;28;19925;-80
2022/12/19 05:13:27;;;;;;;;;;;;;;;5.26;66.93;102615.19;5017676;28;20385;-80
2022/12/19 05:16:11;;;;;;;;;;;;;;;5.33;69.33;102615.09;5021299;28;19917;-80
2022/12/19 05:18:56;;;;;;;;;;;;;;;5.48;69.27;102628.94;5031979;28;19917;-79
2022/12/19 05:21:41;;;;;;;;;;;;;;;5.42;66.14;102625.28;5026014;28;19921;-80
2022/12/19 05:24:25;;;;;;;;;;;;;;;5.12;66.40;102616.47;5024833;28;19917;-80
2022/12/19 05:27:09;;;;;;;;;;;;;;;5.69;64.21;102595.94;5020449;28;19917;-80
2022/12/19 05:29:54;;;;;;;;;;;;;;;4.64;67.65;102586.91;5019806;28;19917;-79
2022/12/19 05:32:38;;;;;;;;;;;;;;;5.04;67.49;102587.13;5035830;28;19917;-80
2022/12/19 05:35:23;;;;;;;;;;;;;;;5.37;66.12;102591.97;5018886;28;19921;-80
2022/12/19 05:38:07;;;;;;;;;;;;;;;5.54;65.65;102593.72;5032376;28;19917;-80
2022/12/19 05:40:52;;;;;;;;;;;;;;;5.26;66.66;102603.56;5023069;28;19917;-79
2022/12/19 05:43:36;;;;;;;;;;;;;;;5.31;67.18;102604.50;5032003;28;20389;-79
2022/12/19 05:46:22;;;;;;;;;;;;;;;5.31;66.47;102609.91;5018709;28;19965;-78
2022/12/19 05:49:06;;;;;;;;;;;;;;;5.27;65.99;102602.53;5022598;28;19918;-79
2022/12/19 05:51:51;;;;;;;;;;;;;;;5.04;67.15;102598.72;5023061;28;19917;-79
2022/12/19 05:54:36;;;;;;;;;;;;;;;5.20;66.60;102615.28;5007580;28;19917;-80
2022/12/19 05:57:20;;;;;;;;;;;;;;;5.36;65.62;102617.31;5028603;28;19918;-79
2022/12/19 06:00:05;;;;;;;;;;;;;;;4.99;66.33;102613.94;5020410;28;19921;-80
2022/12/19 06:02:56;;;;;;;;;;;;;;;5.04;67.82;102619.47;5037091;28;19929;-80
2022/12/19 06:05:41;;;;;;;;;;;;;;;5.03;67.33;102629.44;5037095;28;19917;-80
2022/12/19 06:08:25;;;;;;;;;;;;;;;5.49;66.51;102627.84;5039028;28;19921;-79
2022/12/19 06:11:10;;;;;;;;;;;;;;;5.24;67.25;102624.53;5033544;28;20400;-79
2022/12/19 06:13:54;;;;;;;;;;;;;;;5.24;66.97;102627.25;5033911;28;19921;-79
2022/12/19 06:16:39;;;;;;;;;;;;;;;5.45;67.01;102640.16;5024638;28;19925;-78
2022/12/19 06:19:24;;;;;;;;;;;;;;;5.30;67.11;102640.63;5020041;28;19925;-78
2022/12/19 06:22:09;;;;;;;;;;;;;;;5.34;67.65;102649.91;5013576;28;20393;-79
2022/12/19 06:24:53;;;;;;;;;;;;;;;5.28;67.35;102645.44;5023279;28;19921;-78
2022/12/19 06:27:37;;;;;;;;;;;;;;;5.33;67.90;102639.34;5034153;28;19917;-79
2022/12/19 06:30:22;;;;;;;;;;;;;;;5.10;68.25;102638.25;5019146;28;19921;-79
2022/12/19 06:33:06;;;;;;;;;;;;;;;4.97;69.54;102640.34;5028131;28;20332;-79
2022/12/19 06:35:58;;;;;;;;;;;;;;;5.49;67.89;102633.25;5037665;28;19916;-79
2022/12/19 06:38:43;;;;;;;;;;;;;;;5.83;66.66;102639.72;5039117;28;19924;-79
2022/12/19 06:44:31;;;;;;;;;;;;;;;5.67;67.19;102613.44;5025705;28;19921;-79
2022/12/19 06:47:16;;;;;;;;;;;;;;;5.69;67.03;102617.53;5025020;28;19917;-77
2022/12/19 06:50:00;;;;;;;;;;;;;;;5.54;67.64;102620.69;5034647;28;20309;-78
2022/12/19 06:52:45;;;;;;;;;;;;;;;5.76;66.84;102628.22;5034175;28;20386;-79
2022/12/19 06:55:30;;;;;;;;;;;;;;;5.75;66.82;102635.47;5032096;28;19921;-78
2022/12/19 06:58:15;;;;;;;;;;;;;;;5.72;67.74;102644.06;5036105;28;19917;-77
2022/12/19 07:01:00;;;;;;;;;;;;;;;5.84;66.94;102636.75;5040890;28;19917;-78
2022/12/19 07:03:45;;;;;;;;;;;;;;;5.61;67.83;102644.88;5034672;28;19921;-78
2022/12/19 07:06:30;;;;;;;;;;;;;;;5.72;67.41;102649.47;5030635;28;19917;-77
2022/12/19 07:09:14;;;;;;;;;;;;;;;5.67;67.21;102645.81;5021769;28;19917;-79
2022/12/19 07:11:59;;;;;;;;;;;;;;;5.24;68.17;102641.56;5016999;28;19917;-78
2022/12/19 07:14:44;;;;;;;;;;;;;;;5.21;69.61;102647.44;5022916;28;20305;-79
2022/12/19 07:17:28;;;;;;;;;;;;;;;5.21;69.38;102643.91;5033942;28;20324;-80
2022/12/19 07:20:14;;;;;;;;;;;;;;;5.30;68.89;102651.41;5020222;28;19917;-78
2022/12/19 07:22:58;;;;;;;;;;;;;;;5.51;68.51;102647.34;5027330;28;20390;-78
2022/12/19 07:25:42;;;;;;;;;;;;;;;6.00;66.71;102638.78;5034522;28;20309;-79
2022/12/19 07:28:27;;;;;;;;;;;;;;;6.28;65.59;102648.00;5027174;28;19917;-78
2022/12/19 07:31:12;;;;;;;;;;;;;;;6.18;65.18;102637.00;5039367;28;19917;-79
2022/12/19 07:33:56;;;;;;;;;;;;;;;5.78;67.49;102631.50;5029739;28;19932;-79
2022/12/19 07:36:41;;;;;;;;;;;;;;;6.10;66.42;102624.66;5039414;28;19917;-78
2022/12/19 07:39:25;;;;;;;;;;;;;;;6.27;66.19;102627.44;5035543;28;19917;-79
2022/12/19 07:42:10;;;;;;;;;;;;;;;6.11;66.73;102633.59;5033335;28;20678;-79
2022/12/19 07:44:56;;;;;;;;;;;;;;;5.87;67.75;102638.22;5022487;28;19917;-79
2022/12/19 07:47:40;;;;;;;;;;;;;;;5.85;67.65;102643.81;5036886;28;19917;-78
2022/12/19 07:50:25;;;;;;;;;;;;;;;5.82;68.69;102651.56;5037254;28;19917;-76
2022/12/19 07:53:09;;;;;;;;;;;;;;;5.90;68.15;102659.31;5041644;28;19920;-78
2022/12/19 07:55:54;;;;;;;;;;;;;;;5.97;67.74;102651.94;5035448;28;19925;-77
2022/12/19 07:58:38;;;;;;;;;;;;;;;5.86;67.82;102645.44;5042877;28;19918;-77
2022/12/19 08:01:23;;;;;;;;;;;;;;;6.08;66.51;102631.38;5033182;28;19925;-77
2022/12/19 08:04:07;;;;;;;;;;;;;;;5.29;70.04;102647.06;5043580;28;19921;-78
2022/12/19 08:06:52;;;;;;;;;;;;;;;4.41;72.83;102651.47;5041599;28;19916;-78
2022/12/19 08:09:36;;;;;;;;;;;;;;;5.01;71.55;102647.72;5040251;28;19917;-78
2022/12/19 08:12:20;;;;;;;;;;;;;;;4.51;73.47;102649.06;5035524;28;19938;-79
2022/12/19 08:15:05;;;;;;;;;;;;;;;4.50;72.85;102653.63;5046226;28;19917;-78
2022/12/19 08:17:50;;;;;;;;;;;;;;;4.83;73.31;102655.88;5036910;28;19917;-78
2022/12/19 08:20:34;;;;;;;;;;;;;;;5.56;71.30;102658.25;5030030;28;19921;-78
2022/12/19 08:23:18;;;;;;;;;;;;;;;5.54;69.96;102657.66;5044283;28;19920;-78
2022/12/19 08:26:04;;;;;;;;;;;;;;;5.54;69.98;102668.44;5019251;28;19917;-78
2022/12/19 08:28:49;;;;;;;;;;;;;;;5.18;70.71;102672.97;5032464;28;19917;-78
2022/12/19 08:31:33;;;;;;;;;;;;;;;4.76;72.66;102654.31;5032465;28;19921;-78
2022/12/19 08:34:18;;;;;;;;;;;;;;;4.90;71.70;102650.38;5025798;28;19917;-78
2022/12/19 08:37:03;;;;;;;;;;;;;;;5.04;70.92;102663.44;5036485;28;19917;-78
2022/12/19 08:39:48;;;;;;;;;;;;;;;4.38;73.34;102649.22;5047968;28;20468;-79
2022/12/19 08:42:32;;;;;;;;;;;;;;;5.17;71.07;102657.03;5054991;28;20293;-77
2022/12/19 08:45:17;;;;;;;;;;;;;;;5.29;70.02;102640.84;5022146;28;19917;-80
2022/12/19 08:48:02;;;;;;;;;;;;;;;5.44;68.95;102654.72;5040604;28;19917;-79
2022/12/19 08:50:49;;;;;;;;;;;;;;;5.46;69.35;102645.34;5034324;28;20385;-79
2022/12/19 08:53:35;;;;;;;;;;;;;;;5.60;68.91;102637.84;5032825;28;20325;-78
2022/12/19 08:56:20;;;;;;;;;;;;;;;5.78;68.13;102651.22;5050234;28;19920;-78
2022/12/19 08:59:05;;;;;;;;;;;;;;;6.00;67.92;102654.97;5031642;28;19932;-79
2022/12/19 09:01:50;;;;;;;;;;;;;;;5.70;68.30;102656.97;5032043;28;19917;-78
2022/12/19 09:04:34;;;;;;;;;;;;;;;5.77;68.93;102657.66;5023145;28;19925;-79
2022/12/19 09:07:18;;;;;;;;;;;;;;;5.91;68.40;102651.00;5025661;28;19917;-79
2022/12/19 09:10:04;;;;;;;;;;;;;;;5.55;68.54;102653.91;5038559;28;19917;-79
2022/12/19 09:12:49;;;;;;;;;;;;;;;5.07;71.57;102663.00;5008741;28;19917;-78
2022/12/19 09:15:33;;;;;;;;;;;;;;;5.02;71.42;102656.66;5020654;28;19917;-78
2022/12/19 09:18:17;;;;;;;;;;;;;;;4.30;74.41;102659.28;5019919;28;19917;-80
2022/12/19 09:21:02;;;;;;;;;;;;;;;4.74;73.06;102658.06;5030214;28;19936;-78
2022/12/19 09:23:48;;;;;;;;;;;;;;;4.69;73.64;102655.25;5031554;28;19921;-82
2022/12/19 09:26:33;;;;;;;;;;;;;;;4.38;75.87;102654.59;5019656;28;19917;-79
2022/12/19 09:29:18;;;;;;;;;;;;;;;4.23;75.13;102655.81;5029408;28;20300;-82
2022/12/19 09:32:02;;;;;;;;;;;;;;;4.82;74.13;102659.63;5029202;28;19917;-82
2022/12/19 09:34:47;;;;;;;;;;;;;;;4.71;74.08;102655.03;5036747;28;19917;-81
2022/12/19 09:37:31;;;;;;;;;;;;;;;4.83;74.57;102655.88;5022392;28;19921;-81
2022/12/19 09:40:16;;;;;;;;;;;;;;;4.83;75.15;102658.56;5039209;28;20366;-81
2022/12/19 09:43:09;;;;;;;;;;;;;;;5.05;73.85;102670.47;5037223;28;19921;-82
2022/12/19 09:45:57;;;;;;;;;;;;;;;4.92;73.81;102659.91;5018870;28;19921;-80
2022/12/19 09:48:44;;;;;;;;;;;;;;;5.22;73.81;102656.34;5043789;28;19917;-81
2022/12/19 09:51:37;;;;;;;;;;;;;;;5.32;72.45;102659.28;5034120;28;20444;-80
2022/12/19 09:54:25;;;;;;;;;;;;;;;5.18;73.10;102657.88;5030630;28;19917;-81
2022/12/19 09:57:18;;;;;;;;;;;;;;;5.44;72.16;102657.41;5018582;28;19921;-82
2022/12/19 10:00:06;;;;;;;;;;;;;;;5.85;71.70;102653.78;5020365;28;19917;-82
2022/12/19 10:02:59;;;;;;;;;;;;;;;5.63;71.20;102645.47;5013610;28;19925;-81
2022/12/19 10:05:55;;;;;;;;;;;;;;;4.95;73.52;102645.13;5015202;28;19917;-79
2022/12/19 10:08:43;;;;;;;;;;;;;;;5.08;73.19;102643.03;5027673;28;19917;-80
2022/12/19 10:11:39;;;;;;;;;;;;;;;4.65;73.68;102647.84;5038649;28;19917;-79
2022/12/19 10:14:44;;;;;;;;;;;;;;;3.99;77.25;102650.53;5037162;28;20400;-79
2022/12/19 10:17:34;;;;;;;;;;;;;;;4.52;76.73;102651.50;5031982;28;19916;-78
2022/12/19 10:20:26;;;;;;;;;;;;;;;4.78;75.48;102652.22;5034558;28;19921;-80
2022/12/19 10:23:40;;;;;;;;;;;;;;;4.78;74.38;102642.25;5022809;28;19921;-79
2022/12/19 10:26:34;;;;;;;;;;;;;;;5.62;72.70;102651.91;5022382;28;20393;-80
2022/12/19 10:36:22;;;;;;;;;;;;;;;6.58;67.11;102636.97;5054899;28;19917;-81
2022/12/19 10:39:11;;;;;;;;;;;;;;;6.70;67.16;102619.66;5037979;28;19917;-82
2022/12/19 10:42:01;;;;;;;;;;;;;;;6.67;66.98;102622.00;5050221;28;19917;-82
2022/12/19 10:44:47;;;;;;;;;;;;;;;6.97;66.26;102616.31;5033487;28;19921;-81
2022/12/19 10:47:32;;;;;;;;;;;;;;;7.27;64.34;102620.34;5022346;28;20546;-82
2022/12/19 10:50:20;;;;;;;;;;;;;;;7.04;64.48;102617.00;5026271;28;19917;-82
2022/12/19 10:53:06;;;;;;;;;;;;;;;7.24;64.03;102614.63;5027086;28;19917;-81
2022/12/19 10:55:52;;;;;;;;;;;;;;;7.29;64.18;102612.00;5031774;28;19917;-82
2022/12/19 10:58:37;;;;;;;;;;;;;;;7.34;63.84;102608.53;5030127;28;19917;-80
2022/12/19 11:01:26;;;;;;;;;;;;;;;6.85;65.76;102603.72;5037009;28;19924;-80
2022/12/19 11:04:11;;;;;;;;;;;;;;;6.85;65.81;102611.81;5038585;28;19921;-80
2022/12/19 11:07:02;;;;;;;;;;;;;;;6.86;66.20;102608.03;5022614;28;20310;-79
2022/12/19 11:09:47;;;;;;;;;;;;;;;7.16;64.88;102606.94;5029262;28;19917;-81
2022/12/19 11:12:31;;;;;;;;;;;;;;;7.18;64.49;102596.66;5039691;28;19916;-78
2022/12/19 11:15:15;;;;;;;;;;;;;;;7.33;63.97;102596.91;5045896;28;19917;-78
2022/12/19 11:18:07;;;;;;;;;;;;;;;7.43;63.85;102588.94;5019709;28;19924;-80
2022/12/19 11:21:11;;;;;;;;;;;;;;;6.59;65.34;102592.66;5031751;28;19917;-79
2022/12/19 11:23:56;;;;;;;;;;;;;;;6.63;66.19;102586.53;5017876;28;19921;-80
2022/12/19 11:26:42;;;;;;;;;;;;;;;6.65;66.61;102578.19;5032787;28;19917;-79
2022/12/19 11:29:43;;;;;;;;;;;;;;;6.96;65.47;102574.13;5025046;28;19917;-79
2022/12/19 11:32:32;;;;;;;;;;;;;;;7.15;64.14;102573.66;5017191;28;19922;-78
2022/12/19 11:35:19;;;;;;;;;;;;;;;7.73;62.82;102567.72;5010040;28;19917;-80
2022/12/19 11:38:10;;;;;;;;;;;;;;;7.81;62.92;102566.47;5024805;28;20193;-81
2022/12/19 11:40:56;;;;;;;;;;;;;;;8.17;62.47;102562.31;5024798;28;20313;-80
2022/12/19 11:44:02;;;;;;;;;;;;;;;8.17;61.68;102559.59;5034335;28;19920;-81
2022/12/19 11:46:52;;;;;;;;;;;;;;;8.02;61.21;102551.28;5027154;28;19917;-81
2022/12/19 11:49:43;;;;;;;;;;;;;;;8.10;61.97;102553.53;5032976;28;20393;-81
2022/12/19 11:52:27;;;;;;;;;;;;;;;8.42;60.90;102553.66;5046253;28;19916;-81
2022/12/19 11:55:26;;;;;;;;;;;;;;;8.35;60.39;102548.44;5034168;28;19917;-78
2022/12/19 11:58:11;;;;;;;;;;;;;;;8.67;59.98;102547.66;5028638;28;19917;-78
2022/12/19 12:01:21;;;;;;;;;;;;;;;8.24;61.41;102545.84;5024445;28;20388;-80
2022/12/19 12:04:12;;;;;;;;;;;;;;;8.32;61.39;102540.81;5043718;28;19921;-77
2022/12/19 12:06:58;;;;;;;;;;;;;;;8.53;60.68;102539.13;5035023;28;19924;-79
2022/12/19 12:09:45;;;;;;;;;;;;;;;7.83;61.37;102531.00;5038833;28;19925;-79
2022/12/19 12:12:33;;;;;;;;;;;;;;;8.45;60.58;102529.56;5029724;28;19917;-77
2022/12/19 12:15:34;;;;;;;;;;;;;;;8.47;59.28;102535.56;5031505;28;20389;-78
2022/12/19 12:18:38;;;;;;;;;;;;;;;8.59;60.57;102525.34;5020205;28;20293;-77
2022/12/19 12:21:24;;;;;;;;;;;;;;;8.53;59.65;102520.94;5034399;28;19917;-77
2022/12/19 12:24:27;;;;;;;;;;;;;;;9.08;57.79;102517.09;5024895;28;19921;-78
2022/12/19 12:27:17;;;;;;;;;;;;;;;9.41;57.14;102516.72;5046655;28;19916;-78
2022/12/19 12:30:07;;;;;;;;;;;;;;;9.27;56.89;102517.47;5028022;28;20377;-78
2022/12/19 12:33:04;;;;;;;;;;;;;;;9.31;56.58;102515.84;5029913;28;19916;-79
2022/12/19 12:35:51;;;;;;;;;;;;;;;9.23;57.00;102517.19;5019062;28;19917;-78
2022/12/19 12:38:53;;;;;;;;;;;;;;;8.59;58.11;102509.09;5041719;28;20300;-78
2022/12/19 12:42:03;;;;;;;;;;;;;;;8.74;58.98;102502.16;5046055;28;19917;-78
2022/12/19 12:44:49;;;;;;;;;;;;;;;8.82;58.52;102504.41;5034986;28;19921;-79
2022/12/19 12:47:35;;;;;;;;;;;;;;;8.95;58.44;102504.75;5025384;28;19916;-78
2022/12/19 12:50:23;;;;;;;;;;;;;;;8.71;59.37;102506.22;5028050;28;20301;-78
2022/12/19 12:53:08;;;;;;;;;;;;;;;8.73;59.50;102497.81;5022719;28;20289;-78
2022/12/19 12:55:55;;;;;;;;;;;;;;;9.04;58.53;102504.28;5035829;28;20317;-81
2022/12/19 12:58:45;;;;;;;;;;;;;;;8.91;58.41;102505.53;5030986;28;19916;-79
2022/12/19 13:01:38;;;;;;;;;;;;;;;8.78;58.31;102501.41;5026832;28;19917;-79
2022/12/19 13:04:29;;;;;;;;;;;;;;;9.32;57.56;102496.59;5027042;28;19921;-78
2022/12/19 13:07:39;;;;;;;;;;;;;;;9.65;56.31;102489.16;5029676;28;19917;-80
2022/12/19 13:10:25;;;;;;;;;;;;;;;9.98;54.33;102488.72;5029886;28;19921;-80
2022/12/19 13:13:13;;;;;;;;;;;;;;;9.76;55.21;102501.69;5039021;28;19917;-81
2022/12/19 13:15:58;;;;;;;;;;;;;;;10.00;55.40;102489.28;5027326;28;20398;-78
2022/12/19 13:19:01;;;;;;;;;;;;;;;9.89;55.26;102487.63;5026985;28;20313;-78
2022/12/19 13:22:04;;;;;;;;;;;;;;;8.54;58.88;102500.09;5028680;28;19917;-79
2022/12/19 13:24:51;;;;;;;;;;;;;;;8.88;58.19;102496.06;5024254;28;19921;-80
2022/12/19 13:27:39;;;;;;;;;;;;;;;8.50;58.96;102488.94;5041342;28;19917;-80
2022/12/19 13:30:24;;;;;;;;;;;;;;;7.81;60.95;102489.81;5016324;28;20317;-76
2022/12/19 13:33:08;;;;;;;;;;;;;;;7.88;61.40;102487.72;5028779;28;20306;-78
2022/12/19 13:35:53;;;;;;;;;;;;;;;7.97;60.98;102481.63;5032479;28;20413;-78
2022/12/19 13:38:47;;;;;;;;;;;;;;;7.76;61.69;102487.06;5038458;28;19917;-78
2022/12/19 13:44:42;;;;;;;;;;;;;;;7.38;63.33;102474.38;5037257;28;19937;-78
2022/12/19 13:47:31;;;;;;;;;;;;;;;7.67;62.42;102476.66;5035857;28;19917;-78
2022/12/19 13:50:22;;;;;;;;;;;;;;;7.78;63.09;102484.88;5032048;28;19917;-78
2022/12/19 13:53:18;;;;;;;;;;;;;;;7.70;63.13;102484.28;5018212;28;19918;-77
2022/12/19 13:56:05;;;;;;;;;;;;;;;7.65;62.90;102484.22;5026844;28;19917;-78
2022/12/19 13:58:49;;;;;;;;;;;;;;;7.60;63.33;102478.75;5026315;28;19917;-77
2022/12/19 14:01:35;;;;;;;;;;;;;;;7.81;62.50;102476.28;5031096;28;20300;-78
2022/12/19 14:04:23;;;;;;;;;;;;;;;6.89;64.99;102479.63;5043498;28;20390;-78
2022/12/19 14:07:28;;;;;;;;;;;;;;;7.55;63.72;102478.69;5044162;28;19917;-77
2022/12/19 14:10:16;;;;;;;;;;;;;;;7.31;63.93;102483.50;5034903;28;19917;-78
2022/12/19 14:16:14;;;;;;;;;;;;;;;7.12;65.65;102486.72;5028589;28;20301;-78
2022/12/19 14:18:59;;;;;;;;;;;;;;;7.32;65.26;102478.91;5038599;28;20004;-78
2022/12/19 14:21:43;;;;;;;;;;;;;;;6.94;66.24;102481.59;5033849;28;19917;-77
2022/12/19 14:24:28;;;;;;;;;;;;;;;7.08;65.51;102477.47;5037878;28;19921;-77
2022/12/19 14:27:15;;;;;;;;;;;;;;;7.00;65.09;102475.22;5031998;28;19917;-78
2022/12/19 14:30:01;;;;;;;;;;;;;;;6.98;65.13;102472.75;5020773;28;19917;-76
2022/12/19 14:32:47;;;;;;;;;;;;;;;6.85;65.88;102470.41;5038792;28;19921;-77
2022/12/19 14:35:34;;;;;;;;;;;;;;;6.87;65.61;102476.34;5031765;28;20308;-78
2022/12/19 14:38:20;;;;;;;;;;;;;;;6.91;65.75;102482.09;5041969;28;19917;-77
2022/12/19 14:43:37;;;;;;;;;;;;;;;7.27;64.72;102465.31;5035636;28;19925;-78
2022/12/19 14:44:19;;;;;;;;;;;;;;;7.37;64.12;102478.16;5038222;28;19921;-77
2022/12/19 14:47:10;;;;;;;;;;;;;;;7.12;64.54;102476.72;5029824;28;19917;-78
2022/12/19 14:49:54;;;;;;;;;;;;;;;7.06;65.64;102476.94;5021135;28;19917;-80
2022/12/19 14:52:40;;;;;;;;;;;;;;;6.83;66.38;102483.31;5035638;28;19917;-77
2022/12/19 14:55:29;;;;;;;;;;;;;;;6.76;66.76;102477.25;5020756;28;20538;-80